createdAt,value
2023-06-21T00:00:47.343Z,13.33
2023-06-21T00:03:16.577Z,13.69
2023-06-21T00:05:45.182Z,14.00
2023-06-21T00:08:14.333Z,14.18
2023-06-21T00:10:42.856Z,14.29
2023-06-21T00:13:12.807Z,14.16
2023-06-21T00:15:41.317Z,13.57
2023-06-21T00:18:09.917Z,13.33
2023-06-21T00:20:39.122Z,13.10
2023-06-21T00:23:09.719Z,12.95
2023-06-21T00:25:39.610Z,12.74
2023-06-21T00:28:08.557Z,12.58
2023-06-21T00:30:38.688Z,12.85
2023-06-21T00:33:07.298Z,12.87
2023-06-21T00:35:36.141Z,12.81
2023-06-21T00:38:07.083Z,12.56
2023-06-21T00:40:36.330Z,12.37
2023-06-21T00:43:05.998Z,12.34
2023-06-21T00:45:41.511Z,12.27
2023-06-21T00:48:11.535Z,12.34
2023-06-21T00:50:40.814Z,12.42
2023-06-21T00:53:10.205Z,12.42
2023-06-21T00:55:41.865Z,12.44
2023-06-21T00:58:12.967Z,12.56
2023-06-21T01:00:42.603Z,12.71
2023-06-21T01:03:12.742Z,12.87
2023-06-21T01:05:41.830Z,13.04
2023-06-21T01:08:24.495Z,12.76
2023-06-21T01:11:07.330Z,12.50
2023-06-21T01:13:53.399Z,12.47
2023-06-21T01:16:26.100Z,12.55
2023-06-21T01:18:57.004Z,12.72
2023-06-21T01:21:29.815Z,12.81
2023-06-21T01:24:15.572Z,12.91
2023-06-21T01:27:04.936Z,13.08
2023-06-21T01:29:39.230Z,13.27
2023-06-21T01:32:09.891Z,13.39
2023-06-21T01:34:39.024Z,13.50
2023-06-21T01:37:10.369Z,13.54
2023-06-21T01:39:39.173Z,13.62
2023-06-21T01:42:08.337Z,13.64
2023-06-21T01:44:38.655Z,13.45
2023-06-21T01:47:08.873Z,13.37
2023-06-21T01:49:40.511Z,13.12
2023-06-21T01:52:10.430Z,13.42
2023-06-21T01:54:44.211Z,13.55
2023-06-21T01:57:13.790Z,13.28
2023-06-21T01:59:44.074Z,13.21
2023-06-21T02:02:13.762Z,13.41
2023-06-21T02:04:44.012Z,13.55
2023-06-21T02:07:15.196Z,13.51
2023-06-21T02:09:45.566Z,13.67
2023-06-21T02:12:14.488Z,13.52
2023-06-21T02:14:44.481Z,13.73
2023-06-21T02:17:13.181Z,13.88
2023-06-21T02:19:41.855Z,14.03
2023-06-21T02:22:12.161Z,14.12
2023-06-21T02:24:41.051Z,13.79
2023-06-21T02:27:10.296Z,13.85
2023-06-21T02:29:43.898Z,13.82
2023-06-21T02:32:12.479Z,13.69
2023-06-21T02:34:40.945Z,13.81
2023-06-21T02:37:13.527Z,13.90
2023-06-21T02:39:42.186Z,13.85
2023-06-21T02:42:12.383Z,13.52
2023-06-21T02:44:41.152Z,13.30
2023-06-21T02:47:11.112Z,13.26
2023-06-21T02:49:39.642Z,13.18
2023-06-21T02:52:09.507Z,13.16
2023-06-21T02:54:38.136Z,13.11
2023-06-21T02:57:08.099Z,13.13
2023-06-21T02:59:38.518Z,13.18
2023-06-21T03:02:07.837Z,13.30
2023-06-21T03:04:39.197Z,13.38
2023-06-21T03:07:09.286Z,13.49
2023-06-21T03:09:37.986Z,13.59
2023-06-21T03:12:10.011Z,13.61
2023-06-21T03:14:39.887Z,13.73
2023-06-21T03:17:11.880Z,13.85
2023-06-21T03:19:41.918Z,13.88
2023-06-21T03:22:11.931Z,13.96
2023-06-21T03:24:41.199Z,14.10
2023-06-21T03:27:09.886Z,14.24
2023-06-21T03:29:39.437Z,14.37
2023-06-21T03:32:09.309Z,14.52
2023-06-21T03:34:39.000Z,14.75
2023-06-21T03:37:09.280Z,14.93
2023-06-21T03:39:38.518Z,15.10
2023-06-21T03:42:07.983Z,15.26
2023-06-21T03:44:37.626Z,15.49
2023-06-21T03:47:07.045Z,15.63
2023-06-21T03:49:36.137Z,15.81
2023-06-21T03:52:05.437Z,15.96
2023-06-21T03:54:35.729Z,16.16
2023-06-21T03:57:04.287Z,16.16
2023-06-21T03:59:33.242Z,16.26
2023-06-21T04:02:02.267Z,16.39
2023-06-21T04:04:30.938Z,16.52
2023-06-21T04:06:59.625Z,16.58
2023-06-21T04:09:28.265Z,16.86
2023-06-21T04:12:00.065Z,17.15
2023-06-21T04:14:29.647Z,17.17
2023-06-21T04:16:58.224Z,17.22
2023-06-21T04:19:26.953Z,17.30
2023-06-21T04:21:55.559Z,17.40
2023-06-21T04:24:24.466Z,17.52
2023-06-21T04:26:53.766Z,17.61
2023-06-21T04:29:24.114Z,17.73
2023-06-21T04:31:53.560Z,17.87
2023-06-21T04:34:22.283Z,17.98
2023-06-21T04:36:51.056Z,18.11
2023-06-21T04:39:21.797Z,18.26
2023-06-21T04:41:52.734Z,18.37
2023-06-21T04:44:21.184Z,18.53
2023-06-21T04:46:51.234Z,18.63
2023-06-21T04:49:20.044Z,18.75
2023-06-21T04:51:48.894Z,18.88
2023-06-21T04:54:18.480Z,19.04
2023-06-21T04:56:47.072Z,19.27
2023-06-21T04:59:15.790Z,19.30
2023-06-21T05:01:44.403Z,19.35
2023-06-21T05:04:14.648Z,19.51
2023-06-21T05:06:43.392Z,19.69
2023-06-21T05:09:12.106Z,19.92
2023-06-21T05:11:40.867Z,19.97
2023-06-21T05:14:09.665Z,20.00
2023-06-21T05:16:39.355Z,19.90
2023-06-21T05:19:08.694Z,20.26
2023-06-21T05:21:38.710Z,20.31
2023-06-21T05:24:07.714Z,20.34
2023-06-21T05:26:36.305Z,20.45
2023-06-21T05:29:05.031Z,20.89
2023-06-21T05:31:33.649Z,20.85
2023-06-21T05:34:05.205Z,21.19
2023-06-21T05:36:34.052Z,21.22
2023-06-21T05:39:04.650Z,21.19
2023-06-21T05:41:32.962Z,21.58
2023-06-21T05:44:02.914Z,21.58
2023-06-21T05:46:31.822Z,21.56
2023-06-21T05:49:00.406Z,21.63
2023-06-21T05:51:29.323Z,21.80
2023-06-21T05:53:57.922Z,21.97
2023-06-21T05:56:29.001Z,22.01
2023-06-21T05:58:57.801Z,22.12
2023-06-21T06:01:27.093Z,22.21
2023-06-21T06:03:55.794Z,22.39
2023-06-21T06:06:24.533Z,22.51
2023-06-21T06:08:53.224Z,22.61
2023-06-21T06:11:21.769Z,22.68
2023-06-21T06:13:52.089Z,22.85
2023-06-21T06:16:20.742Z,22.90
2023-06-21T06:18:49.311Z,22.91
2023-06-21T06:21:22.757Z,23.03
2023-06-21T06:23:52.610Z,23.16
2023-06-21T06:26:24.855Z,23.39
2023-06-21T06:28:55.800Z,23.54
2023-06-21T06:31:27.330Z,23.73
2023-06-21T06:33:56.269Z,23.82
2023-06-21T06:36:24.858Z,23.75
2023-06-21T06:38:54.849Z,23.81
2023-06-21T06:41:23.463Z,23.92
2023-06-21T06:43:56.538Z,23.95
2023-06-21T06:46:25.193Z,23.92
2023-06-21T06:48:53.764Z,24.17
2023-06-21T06:51:22.594Z,24.19
2023-06-21T06:53:51.127Z,24.43
2023-06-21T06:56:19.809Z,24.56
2023-06-21T06:58:48.417Z,24.76
2023-06-21T07:01:18.568Z,24.93
2023-06-21T07:03:47.396Z,25.01
2023-06-21T07:06:18.444Z,25.21
2023-06-21T07:08:48.449Z,25.21
2023-06-21T07:11:17.052Z,25.31
2023-06-21T07:13:45.741Z,25.36
2023-06-21T07:16:14.551Z,25.40
2023-06-21T07:18:44.586Z,25.40
2023-06-21T07:21:13.191Z,25.64
2023-06-21T07:23:41.946Z,26.08
2023-06-21T07:26:11.105Z,26.37
2023-06-21T07:28:39.730Z,26.31
2023-06-21T07:31:08.434Z,26.36
2023-06-21T07:33:37.002Z,26.33
2023-06-21T07:36:08.362Z,26.57
2023-06-21T07:38:37.093Z,26.64
2023-06-21T07:41:05.694Z,26.83
2023-06-21T07:43:34.309Z,26.88
2023-06-21T07:46:14.502Z,26.88
2023-06-21T07:48:43.992Z,26.91
2023-06-21T07:51:13.989Z,26.92
2023-06-21T07:53:42.508Z,26.87
2023-06-21T07:56:15.466Z,27.05
2023-06-21T07:58:44.820Z,27.22
2023-06-21T08:01:14.213Z,27.05
2023-06-21T08:03:43.285Z,27.03
2023-06-21T08:06:13.867Z,27.27
2023-06-21T08:08:42.500Z,27.40
2023-06-21T08:11:11.587Z,27.31
2023-06-21T08:13:40.209Z,27.02
2023-06-21T08:16:08.954Z,27.19
2023-06-21T08:18:38.184Z,27.38
2023-06-21T08:21:07.144Z,27.65
2023-06-21T08:23:37.340Z,27.96
2023-06-21T08:26:05.733Z,27.66
2023-06-21T08:28:34.385Z,27.73
2023-06-21T08:31:03.043Z,27.69
2023-06-21T08:33:31.641Z,27.60
2023-06-21T08:36:00.300Z,27.60
2023-06-21T08:38:29.272Z,27.67
2023-06-21T08:41:04.623Z,27.60
2023-06-21T08:43:34.013Z,27.59
2023-06-21T08:46:07.910Z,27.39
2023-06-21T08:48:38.666Z,27.61
2023-06-21T08:51:07.870Z,27.75
2023-06-21T08:53:42.205Z,27.77
2023-06-21T08:56:15.867Z,27.76
2023-06-21T08:58:52.064Z,28.18
2023-06-21T09:01:24.551Z,28.28
2023-06-21T09:03:58.899Z,28.39
2023-06-21T09:06:29.393Z,28.58
2023-06-21T09:08:59.555Z,28.55
2023-06-21T09:11:29.523Z,28.45
2023-06-21T09:13:58.779Z,28.25
2023-06-21T09:16:28.344Z,28.17
2023-06-21T09:18:58.321Z,28.20
2023-06-21T09:21:27.871Z,28.12
2023-06-21T09:23:56.967Z,28.24
2023-06-21T09:26:25.517Z,28.50
2023-06-21T09:28:55.547Z,28.71
2023-06-21T09:31:24.373Z,28.96
2023-06-21T09:33:54.249Z,29.13
2023-06-21T09:36:22.921Z,29.24
2023-06-21T09:38:51.524Z,29.06
2023-06-21T09:41:20.906Z,29.40
2023-06-21T09:43:50.745Z,29.59
2023-06-21T09:46:20.842Z,29.66
2023-06-21T09:48:50.138Z,29.64
2023-06-21T09:51:20.116Z,29.77
2023-06-21T09:53:49.041Z,29.78
2023-06-21T09:56:20.082Z,30.00
2023-06-21T09:58:53.863Z,29.22
2023-06-21T10:01:25.342Z,29.58
2023-06-21T10:03:55.396Z,29.78
2023-06-21T10:06:30.619Z,29.79
2023-06-21T10:08:59.139Z,29.82
2023-06-21T10:11:29.142Z,29.83
2023-06-21T10:13:57.833Z,29.67
2023-06-21T10:16:29.342Z,30.00
2023-06-21T10:19:02.769Z,30.05
2023-06-21T10:21:33.884Z,30.37
2023-06-21T10:24:06.062Z,30.32
2023-06-21T10:26:36.068Z,30.12
2023-06-21T10:29:05.141Z,29.90
2023-06-21T10:31:36.131Z,29.65
2023-06-21T10:34:10.027Z,29.59
2023-06-21T10:36:44.952Z,29.78
2023-06-21T10:39:14.369Z,30.06
2023-06-21T10:41:44.174Z,30.48
2023-06-21T10:44:13.795Z,30.54
2023-06-21T10:46:46.610Z,30.55
2023-06-21T10:49:18.985Z,30.67
2023-06-21T10:51:49.734Z,30.80
2023-06-21T10:54:18.914Z,30.93
2023-06-21T10:56:48.096Z,30.27
2023-06-21T10:59:17.526Z,30.52
2023-06-21T11:01:47.746Z,30.71
2023-06-21T11:04:16.425Z,30.85
2023-06-21T11:06:45.393Z,30.58
2023-06-21T11:09:19.446Z,30.22
2023-06-21T11:11:52.302Z,30.16
2023-06-21T11:14:28.707Z,30.17
2023-06-21T11:17:12.827Z,30.41
2023-06-21T11:19:41.817Z,30.70
2023-06-21T11:22:17.089Z,30.62
2023-06-21T11:25:01.939Z,30.48
2023-06-21T11:27:30.914Z,30.49
2023-06-21T11:30:05.149Z,30.53
2023-06-21T11:32:39.673Z,30.50
2023-06-21T11:35:11.486Z,29.96
2023-06-21T11:37:42.561Z,30.00
2023-06-21T11:40:13.018Z,30.30
2023-06-21T11:42:46.479Z,30.46
2023-06-21T11:45:22.042Z,30.69
2023-06-21T11:48:14.366Z,30.22
2023-06-21T11:50:45.098Z,30.17
2023-06-21T11:53:19.845Z,30.12
2023-06-21T11:55:50.624Z,30.00
2023-06-21T11:58:19.595Z,29.69
2023-06-21T12:00:48.351Z,29.82
2023-06-21T12:03:19.592Z,29.94
2023-06-21T12:05:56.670Z,29.91
2023-06-21T12:08:28.019Z,29.88
2023-06-21T12:10:59.479Z,29.90
2023-06-21T12:13:28.987Z,29.95
2023-06-21T12:15:58.909Z,30.06
2023-06-21T12:18:30.333Z,30.01
2023-06-21T12:21:00.819Z,29.96
2023-06-21T12:23:30.927Z,30.01
2023-06-21T12:26:01.637Z,30.01
2023-06-21T12:28:30.479Z,29.96
2023-06-21T12:31:00.208Z,29.96
2023-06-21T12:33:31.516Z,29.95
2023-06-21T12:36:15.310Z,29.97
2023-06-21T12:38:45.850Z,30.08
2023-06-21T12:41:17.823Z,30.02
2023-06-21T12:43:47.528Z,29.94
2023-06-21T12:46:16.136Z,30.07
2023-06-21T12:48:48.648Z,30.03
2023-06-21T12:51:25.020Z,29.87
2023-06-21T12:53:58.401Z,29.82
2023-06-21T12:56:29.837Z,29.81
2023-06-21T12:58:58.646Z,29.92
2023-06-21T13:01:27.538Z,29.68
2023-06-21T13:03:58.630Z,29.53
2023-06-21T13:06:28.886Z,29.54
2023-06-21T13:08:58.392Z,29.50
2023-06-21T13:11:28.387Z,29.38
2023-06-21T13:13:57.446Z,29.47
2023-06-21T13:16:26.232Z,29.57
2023-06-21T13:18:56.180Z,29.29
2023-06-21T13:21:27.235Z,29.32
2023-06-21T13:23:58.279Z,29.43
2023-06-21T13:26:27.130Z,29.06
2023-06-21T13:28:55.689Z,29.15
2023-06-21T13:31:25.225Z,29.31
2023-06-21T13:33:54.182Z,29.20
2023-06-21T13:36:22.837Z,29.08
2023-06-21T13:38:52.893Z,28.98
2023-06-21T13:41:21.470Z,29.01
2023-06-21T13:43:50.553Z,28.92
2023-06-21T13:46:19.193Z,29.12
2023-06-21T13:48:47.805Z,28.92
2023-06-21T13:51:16.460Z,28.88
2023-06-21T13:53:45.891Z,28.84
2023-06-21T13:56:15.980Z,28.77
2023-06-21T13:58:46.430Z,28.80
2023-06-21T14:01:15.234Z,28.83
2023-06-21T14:03:43.830Z,28.95
2023-06-21T14:06:12.684Z,28.86
2023-06-21T14:08:41.186Z,29.12
2023-06-21T14:11:09.709Z,28.84
2023-06-21T14:13:39.567Z,28.61
2023-06-21T14:16:08.119Z,28.58
2023-06-21T14:18:47.294Z,28.68
2023-06-21T14:21:16.628Z,28.67
2023-06-21T14:23:45.638Z,28.48
2023-06-21T14:26:14.385Z,28.51
2023-06-21T14:28:44.559Z,28.44
2023-06-21T14:31:13.230Z,28.47
2023-06-21T14:33:41.771Z,28.35
2023-06-21T14:36:10.494Z,28.33
2023-06-21T14:38:39.596Z,28.39
2023-06-21T14:41:08.239Z,28.32
2023-06-21T14:43:36.833Z,28.39
2023-06-21T14:46:08.340Z,28.42
2023-06-21T14:48:37.386Z,28.24
2023-06-21T14:51:12.077Z,28.26
2023-06-21T14:53:40.697Z,28.33
2023-06-21T14:56:10.306Z,28.27
2023-06-21T14:58:39.380Z,28.36
2023-06-21T15:01:09.529Z,28.32
2023-06-21T15:03:38.472Z,28.25
2023-06-21T15:06:07.349Z,28.20
2023-06-21T15:08:35.897Z,28.05
2023-06-21T15:11:06.745Z,28.17
2023-06-21T15:13:36.915Z,28.05
2023-06-21T15:16:05.869Z,28.00
2023-06-21T15:18:36.011Z,27.93
2023-06-21T15:21:04.942Z,27.90
2023-06-21T15:23:33.613Z,27.89
2023-06-21T15:26:03.332Z,27.80
2023-06-21T15:28:31.971Z,27.83
2023-06-21T15:31:01.823Z,27.73
2023-06-21T15:33:30.465Z,27.61
2023-06-21T15:36:00.463Z,27.57
2023-06-21T15:38:29.068Z,27.31
2023-06-21T15:40:59.616Z,27.27
2023-06-21T15:43:28.519Z,27.28
2023-06-21T15:45:58.525Z,27.28
2023-06-21T15:48:27.298Z,27.42
2023-06-21T15:50:55.996Z,27.40
2023-06-21T15:53:26.061Z,27.52
2023-06-21T15:55:54.732Z,27.57
2023-06-21T15:58:23.378Z,27.75
2023-06-21T16:00:51.975Z,27.95
2023-06-21T16:03:20.611Z,28.19
2023-06-21T16:05:51.619Z,28.09
2023-06-21T16:08:20.250Z,28.36
2023-06-21T16:10:56.528Z,28.25
2023-06-21T16:13:27.874Z,28.46
2023-06-21T16:15:57.106Z,28.61
2023-06-21T16:18:25.687Z,28.60
2023-06-21T16:20:57.046Z,28.50
2023-06-21T16:23:29.885Z,28.49
2023-06-21T16:25:59.959Z,28.70
2023-06-21T16:28:28.483Z,28.41
2023-06-21T16:30:57.113Z,28.65
2023-06-21T16:33:25.736Z,28.59
2023-06-21T16:35:55.369Z,28.26
2023-06-21T16:38:24.484Z,28.27
2023-06-21T16:40:53.287Z,28.41
2023-06-21T16:43:23.403Z,28.38
2023-06-21T16:45:52.139Z,28.22
2023-06-21T16:48:20.847Z,28.48
2023-06-21T16:50:49.736Z,28.15
2023-06-21T16:53:18.411Z,28.13
2023-06-21T16:55:47.030Z,28.21
2023-06-21T16:58:15.617Z,27.92
2023-06-21T17:00:45.691Z,27.77
2023-06-21T17:03:14.359Z,27.77
2023-06-21T17:05:43.085Z,27.84
2023-06-21T17:08:12.047Z,27.62
2023-06-21T17:10:40.632Z,27.61
2023-06-21T17:13:09.286Z,27.30
2023-06-21T17:15:38.034Z,27.40
2023-06-21T17:18:08.631Z,27.17
2023-06-21T17:20:37.221Z,26.91
2023-06-21T17:23:06.242Z,26.85
2023-06-21T17:25:34.797Z,26.84
2023-06-21T17:28:03.494Z,26.64
2023-06-21T17:30:32.243Z,26.55
2023-06-21T17:33:01.039Z,26.62
2023-06-21T17:35:31.490Z,26.59
2023-06-21T17:38:00.976Z,26.53
2023-06-21T17:40:29.465Z,26.47
2023-06-21T17:42:58.368Z,26.35
2023-06-21T17:45:27.315Z,26.27
2023-06-21T17:47:56.152Z,26.21
2023-06-21T17:50:24.866Z,26.20
2023-06-21T17:52:54.863Z,26.03
2023-06-21T17:55:23.524Z,25.90
2023-06-21T17:57:52.556Z,25.46
2023-06-21T18:00:23.659Z,25.22
2023-06-21T18:02:52.300Z,25.10
2023-06-21T18:05:22.532Z,25.28
2023-06-21T18:07:51.068Z,25.21
2023-06-21T18:10:21.462Z,25.22
2023-06-21T18:12:49.642Z,24.95
2023-06-21T18:15:18.306Z,24.67
2023-06-21T18:17:46.919Z,24.81
2023-06-21T18:20:15.705Z,24.65
2023-06-21T18:22:44.523Z,24.54
2023-06-21T18:25:13.762Z,24.39
2023-06-21T18:27:44.000Z,24.38
2023-06-21T18:30:13.506Z,24.26
2023-06-21T18:32:42.155Z,23.73
2023-06-21T18:35:11.830Z,23.90
2023-06-21T18:37:41.191Z,23.90
2023-06-21T18:40:10.933Z,23.36
2023-06-21T18:42:40.104Z,23.03
2023-06-21T18:45:11.420Z,23.01
2023-06-21T18:47:41.017Z,23.07
2023-06-21T18:50:10.449Z,23.39
2023-06-21T18:52:39.126Z,23.53
2023-06-21T18:55:08.959Z,23.65
2023-06-21T18:57:37.602Z,23.44
2023-06-21T19:00:07.213Z,23.34
2023-06-21T19:02:37.647Z,23.29
2023-06-21T19:05:07.229Z,23.47
2023-06-21T19:07:35.986Z,23.39
2023-06-21T19:10:04.924Z,23.06
2023-06-21T19:12:33.532Z,22.88
2023-06-21T19:15:02.130Z,23.12
2023-06-21T19:17:30.993Z,22.91
2023-06-21T19:20:01.052Z,22.60
2023-06-21T19:22:31.479Z,22.62
2023-06-21T19:25:01.226Z,22.63
2023-06-21T19:27:29.781Z,22.32
2023-06-21T19:29:58.741Z,22.43
2023-06-21T19:32:28.105Z,22.49
2023-06-21T19:34:56.790Z,22.46
2023-06-21T19:37:26.908Z,22.22
2023-06-21T19:39:55.403Z,21.92
2023-06-21T19:42:23.965Z,21.94
2023-06-21T19:44:54.435Z,21.52
2023-06-21T19:47:26.106Z,21.41
2023-06-21T19:49:54.920Z,21.51
2023-06-21T19:52:23.346Z,21.67
2023-06-21T19:54:53.345Z,21.71
2023-06-21T19:57:21.923Z,21.14
2023-06-21T19:59:50.357Z,21.23
2023-06-21T20:02:19.102Z,21.07
2023-06-21T20:04:47.584Z,21.14
2023-06-21T20:07:17.171Z,20.59
2023-06-21T20:09:45.782Z,20.36
2023-06-21T20:12:16.457Z,20.74
2023-06-21T20:14:44.865Z,20.70
2023-06-21T20:17:13.581Z,20.18
2023-06-21T20:19:42.145Z,19.60
2023-06-21T20:22:10.752Z,19.50
2023-06-21T20:24:39.293Z,19.19
2023-06-21T20:27:09.176Z,19.18
2023-06-21T20:29:39.134Z,19.23
2023-06-21T20:32:09.172Z,19.43
2023-06-21T20:34:38.740Z,19.57
2023-06-21T20:37:07.754Z,19.48
2023-06-21T20:39:36.645Z,19.70
2023-06-21T20:42:05.604Z,19.95
2023-06-21T20:44:34.525Z,19.80
2023-06-21T20:47:06.964Z,19.72
2023-06-21T20:49:35.468Z,19.86
2023-06-21T20:52:05.933Z,19.89
2023-06-21T20:54:34.558Z,19.77
2023-06-21T20:57:03.134Z,19.49
2023-06-21T20:59:31.693Z,18.76
2023-06-21T21:02:00.502Z,19.10
2023-06-21T21:04:30.615Z,18.57
2023-06-21T21:06:59.338Z,18.72
2023-06-21T21:09:28.936Z,19.08
2023-06-21T21:11:58.401Z,19.18
2023-06-21T21:14:26.925Z,18.98
2023-06-21T21:16:56.352Z,18.95
2023-06-21T21:19:25.009Z,19.04
2023-06-21T21:21:55.740Z,18.64
2023-06-21T21:24:24.036Z,18.23
2023-06-21T21:26:52.710Z,18.53
2023-06-21T21:29:21.271Z,18.38
2023-06-21T21:31:53.687Z,18.01
2023-06-21T21:34:22.422Z,18.03
2023-06-21T21:36:51.133Z,18.39
2023-06-21T21:39:21.304Z,18.62
2023-06-21T21:41:49.891Z,18.81
2023-06-21T21:44:18.828Z,18.71
2023-06-21T21:46:47.392Z,18.73
2023-06-21T21:49:16.882Z,18.74
2023-06-21T21:51:45.397Z,17.98
2023-06-21T21:54:13.960Z,17.64
2023-06-21T21:56:44.699Z,17.16
2023-06-21T21:59:12.975Z,17.04
2023-06-21T22:01:41.628Z,16.92
2023-06-21T22:04:10.277Z,16.83
2023-06-21T22:06:38.880Z,16.62
2023-06-21T22:09:07.394Z,16.56
2023-06-21T22:11:36.828Z,16.51
2023-06-21T22:14:06.970Z,16.71
2023-06-21T22:16:37.230Z,16.82
2023-06-21T22:19:06.965Z,16.75
2023-06-21T22:21:36.238Z,16.95
2023-06-21T22:24:05.333Z,16.92
2023-06-21T22:26:34.066Z,16.79
2023-06-21T22:29:02.644Z,16.56
2023-06-21T22:31:34.225Z,16.70
2023-06-21T22:34:02.809Z,17.05
2023-06-21T22:36:31.332Z,17.00
2023-06-21T22:38:59.853Z,16.76
2023-06-21T22:41:28.516Z,16.98
2023-06-21T22:43:57.245Z,17.25
2023-06-21T22:46:29.440Z,17.29
2023-06-21T22:49:04.775Z,17.37
2023-06-21T22:51:36.311Z,17.09
2023-06-21T22:54:05.215Z,17.09
2023-06-21T22:56:33.779Z,16.70
2023-06-21T22:59:02.385Z,16.12
2023-06-21T23:01:30.936Z,15.85
2023-06-21T23:04:01.883Z,15.93
2023-06-21T23:06:30.862Z,16.37
2023-06-21T23:09:05.080Z,16.37
2023-06-21T23:11:33.754Z,16.06
2023-06-21T23:14:02.242Z,16.10
2023-06-21T23:16:34.947Z,15.79
2023-06-21T23:19:07.366Z,15.53
2023-06-21T23:21:42.412Z,15.30
2023-06-21T23:24:11.150Z,15.12
2023-06-21T23:26:39.928Z,15.12
2023-06-21T23:29:12.586Z,15.01
2023-06-21T23:31:41.431Z,14.88
2023-06-21T23:34:16.206Z,14.78
2023-06-21T23:36:51.638Z,14.92
2023-06-21T23:39:20.384Z,14.81
2023-06-21T23:41:48.925Z,14.69
2023-06-21T23:44:17.502Z,14.51
2023-06-21T23:46:47.188Z,14.44
2023-06-21T23:49:17.177Z,14.75
2023-06-21T23:51:48.514Z,14.95
2023-06-21T23:54:17.052Z,14.69
2023-06-21T23:56:45.550Z,14.78
2023-06-21T23:59:15.958Z,15.13
